Terminal Aerodrome Forecast
Issued by NWS

Home | Current Version | Previous Version | Text Only | Print | Product List | Glossary On
Versions: 1 2 3 4 5 6 7 8 9 10 11 12 13
000
FTUS46 KPDT 051720
TAFPSC
TAF
KPSC 051720Z 0518/0618 23014G22KT P6SM SCT050
     FM060400 VRB05KT P6SM FEW100 SCT250
     FM061100 VRB04KT P6SM BKN110=

USA.gov is the U.S. government's official web portal to all federal, state and local government web resources and services.